sensor_id;sensor_type;location;lat;lon;timestamp;temperature;humidity
71177;DHT22;58877;51.992;4.504;2023-02-08T00:01:29;0.50;81.17
71177;DHT22;58877;51.992;4.504;2023-02-08T00:03:55;0.43;81.11
71177;DHT22;58877;51.992;4.504;2023-02-08T00:06:21;0.32;81.19
71177;DHT22;58877;51.992;4.504;2023-02-08T00:08:50;0.29;81.43
71177;DHT22;58877;51.992;4.504;2023-02-08T00:11:16;0.22;81.38
71177;DHT22;58877;51.992;4.504;2023-02-08T00:13:42;0.19;81.43
71177;DHT22;58877;51.992;4.504;2023-02-08T00:16:08;0.13;81.39
71177;DHT22;58877;51.992;4.504;2023-02-08T00:18:36;0.12;81.54
71177;DHT22;58877;51.992;4.504;2023-02-08T00:21:07;0.05;81.60
71177;DHT22;58877;51.992;4.504;2023-02-08T00:23:33;0.08;81.79
71177;DHT22;58877;51.992;4.504;2023-02-08T00:25:58;0.02;81.75
71177;DHT22;58877;51.992;4.504;2023-02-08T00:28:24;0.01;81.86
71177;DHT22;58877;51.992;4.504;2023-02-08T00:30:50;0.02;81.99
71177;DHT22;58877;51.992;4.504;2023-02-08T00:33:15;0.01;81.99
71177;DHT22;58877;51.992;4.504;2023-02-08T00:35:42;-0.05;82.06
71177;DHT22;58877;51.992;4.504;2023-02-08T00:38:08;-0.03;82.34
71177;DHT22;58877;51.992;4.504;2023-02-08T00:40:34;-0.05;82.22
71177;DHT22;58877;51.992;4.504;2023-02-08T00:42:59;-0.08;82.19
71177;DHT22;58877;51.992;4.504;2023-02-08T00:45:25;-0.08;82.28
71177;DHT22;58877;51.992;4.504;2023-02-08T00:47:54;-0.09;82.33
71177;DHT22;58877;51.992;4.504;2023-02-08T00:50:20;-0.12;82.44
71177;DHT22;58877;51.992;4.504;2023-02-08T00:52:48;-0.12;82.37
71177;DHT22;58877;51.992;4.504;2023-02-08T00:55:14;-0.16;82.41
71177;DHT22;58877;51.992;4.504;2023-02-08T00:57:40;-0.16;82.49
71177;DHT22;58877;51.992;4.504;2023-02-08T01:00:06;-0.18;82.64
71177;DHT22;58877;51.992;4.504;2023-02-08T01:02:33;-0.18;82.59
71177;DHT22;58877;51.992;4.504;2023-02-08T01:04:59;-0.19;82.56
71177;DHT22;58877;51.992;4.504;2023-02-08T01:07:27;-0.21;82.37
71177;DHT22;58877;51.992;4.504;2023-02-08T01:09:53;-0.21;82.49
71177;DHT22;58877;51.992;4.504;2023-02-08T01:12:19;-0.13;82.62
71177;DHT22;58877;51.992;4.504;2023-02-08T01:14:45;0.01;82.80
71177;DHT22;58877;51.992;4.504;2023-02-08T01:17:11;0.01;82.68
71177;DHT22;58877;51.992;4.504;2023-02-08T01:19:36;0.05;83.25
71177;DHT22;58877;51.992;4.504;2023-02-08T01:22:02;0.09;82.77
71177;DHT22;58877;51.992;4.504;2023-02-08T01:24:28;-0.01;82.48
71177;DHT22;58877;51.992;4.504;2023-02-08T01:26:54;-0.11;82.32
71177;DHT22;58877;51.992;4.504;2023-02-08T01:29:19;-0.16;82.31
71177;DHT22;58877;51.992;4.504;2023-02-08T01:31:45;-0.25;82.31
71177;DHT22;58877;51.992;4.504;2023-02-08T01:34:12;-0.26;82.47
71177;DHT22;58877;51.992;4.504;2023-02-08T01:36:39;-0.32;82.68
71177;DHT22;58877;51.992;4.504;2023-02-08T01:39:06;-0.28;82.89
71177;DHT22;58877;51.992;4.504;2023-02-08T01:41:35;-0.26;82.72
71177;DHT22;58877;51.992;4.504;2023-02-08T01:46:41;-0.09;83.46
71177;DHT22;58877;51.992;4.504;2023-02-08T01:51:41;0.05;83.71
71177;DHT22;58877;51.992;4.504;2023-02-08T01:54:10;0.06;83.08
71177;DHT22;58877;51.992;4.504;2023-02-08T01:56:40;-0.02;82.70
71177;DHT22;58877;51.992;4.504;2023-02-08T01:59:21;-0.06;82.62
71177;DHT22;58877;51.992;4.504;2023-02-08T02:01:51;-0.12;82.53
71177;DHT22;58877;51.992;4.504;2023-02-08T02:04:17;-0.18;82.58
71177;DHT22;58877;51.992;4.504;2023-02-08T02:06:50;-0.19;82.81
71177;DHT22;58877;51.992;4.504;2023-02-08T02:11:50;0.12;83.67
71177;DHT22;58877;51.992;4.504;2023-02-08T02:14:18;0.10;83.15
71177;DHT22;58877;51.992;4.504;2023-02-08T02:16:44;-0.01;82.58
71177;DHT22;58877;51.992;4.504;2023-02-08T02:24:45;-0.29;82.61
71177;DHT22;58877;51.992;4.504;2023-02-08T02:30:12;-0.36;82.65
71177;DHT22;58877;51.992;4.504;2023-02-08T02:38:10;-0.29;82.85
71177;DHT22;58877;51.992;4.504;2023-02-08T02:43:53;-0.12;83.23
71177;DHT22;58877;51.992;4.504;2023-02-08T02:46:42;-0.23;83.14
71177;DHT22;58877;51.992;4.504;2023-02-08T02:49:13;-0.13;83.46
71177;DHT22;58877;51.992;4.504;2023-02-08T02:52:04;-0.09;82.97
71177;DHT22;58877;51.992;4.504;2023-02-08T02:54:44;-0.11;83.40
71177;DHT22;58877;51.992;4.504;2023-02-08T02:57:16;-0.15;83.43
71177;DHT22;58877;51.992;4.504;2023-02-08T02:59:42;-0.22;83.02
71177;DHT22;58877;51.992;4.504;2023-02-08T03:02:10;-0.22;82.75
71177;DHT22;58877;51.992;4.504;2023-02-08T03:10:04;-0.42;82.48
71177;DHT22;58877;51.992;4.504;2023-02-08T03:21:19;-0.70;82.65
71177;DHT22;58877;51.992;4.504;2023-02-08T03:29:35;-0.73;82.95
71177;DHT22;58877;51.992;4.504;2023-02-08T03:32:09;-0.73;82.87
71177;DHT22;58877;51.992;4.504;2023-02-08T03:34:50;-0.76;82.85
71177;DHT22;58877;51.992;4.504;2023-02-08T03:37:23;-0.80;82.81
71177;DHT22;58877;51.992;4.504;2023-02-08T03:39:57;-0.80;82.91
71177;DHT22;58877;51.992;4.504;2023-02-08T03:42:27;-0.83;82.92
71177;DHT22;58877;51.992;4.504;2023-02-08T03:45:11;-0.79;82.97
71177;DHT22;58877;51.992;4.504;2023-02-08T03:47:41;-0.81;83.02
71177;DHT22;58877;51.992;4.504;2023-02-08T03:50:11;-0.81;83.06
71177;DHT22;58877;51.992;4.504;2023-02-08T03:52:45;-0.84;83.12
71177;DHT22;58877;51.992;4.504;2023-02-08T03:55:16;-0.81;83.03
71177;DHT22;58877;51.992;4.504;2023-02-08T04:00:20;-0.84;82.85
71177;DHT22;58877;51.992;4.504;2023-02-08T04:03:01;-0.87;82.83
71177;DHT22;58877;51.992;4.504;2023-02-08T04:05:30;-0.91;82.87
71177;DHT22;58877;51.992;4.504;2023-02-08T04:07:56;-0.91;82.91
71177;DHT22;58877;51.992;4.504;2023-02-08T04:10:21;-0.87;82.85
71177;DHT22;58877;51.992;4.504;2023-02-08T04:12:47;-0.84;83.03
71177;DHT22;58877;51.992;4.504;2023-02-08T04:15:13;-0.70;83.23
71177;DHT22;58877;51.992;4.504;2023-02-08T04:17:39;-0.70;82.75
71177;DHT22;58877;51.992;4.504;2023-02-08T04:20:06;-0.76;82.91
71177;DHT22;58877;51.992;4.504;2023-02-08T04:22:31;-0.80;82.76
71177;DHT22;58877;51.992;4.504;2023-02-08T04:24:58;-0.87;82.67
71177;DHT22;58877;51.992;4.504;2023-02-08T04:27:24;-0.96;82.74
71177;DHT22;58877;51.992;4.504;2023-02-08T04:29:49;-0.93;82.79
71177;DHT22;58877;51.992;4.504;2023-02-08T04:32:15;-0.91;82.79
71177;DHT22;58877;51.992;4.504;2023-02-08T04:34:41;-0.97;82.94
71177;DHT22;58877;51.992;4.504;2023-02-08T04:37:07;-0.97;82.91
71177;DHT22;58877;51.992;4.504;2023-02-08T04:39:32;-1.00;82.91
71177;DHT22;58877;51.992;4.504;2023-02-08T04:41:58;-1.00;82.96
71177;DHT22;58877;51.992;4.504;2023-02-08T04:44:24;-1.01;82.96
71177;DHT22;58877;51.992;4.504;2023-02-08T04:46:49;-1.01;82.90
71177;DHT22;58877;51.992;4.504;2023-02-08T04:49:15;-0.90;82.94
71177;DHT22;58877;51.992;4.504;2023-02-08T04:51:41;-0.77;82.55
71177;DHT22;58877;51.992;4.504;2023-02-08T04:54:07;-0.88;82.49
71177;DHT22;58877;51.992;4.504;2023-02-08T04:56:32;-0.93;82.31
71177;DHT22;58877;51.992;4.504;2023-02-08T04:58:58;-0.98;82.56
71177;DHT22;58877;51.992;4.504;2023-02-08T05:01:23;-1.01;82.57
71177;DHT22;58877;51.992;4.504;2023-02-08T05:03:49;-1.04;82.56
71177;DHT22;58877;51.992;4.504;2023-02-08T05:06:15;-1.08;82.47
71177;DHT22;58877;51.992;4.504;2023-02-08T05:08:41;-1.15;82.48
71177;DHT22;58877;51.992;4.504;2023-02-08T05:11:06;-1.18;82.62
71177;DHT22;58877;51.992;4.504;2023-02-08T05:13:32;-1.20;82.76
71177;DHT22;58877;51.992;4.504;2023-02-08T05:15:58;-1.18;82.88
71177;DHT22;58877;51.992;4.504;2023-02-08T05:18:24;-1.20;82.91
71177;DHT22;58877;51.992;4.504;2023-02-08T05:20:57;-1.10;83.05
71177;DHT22;58877;51.992;4.504;2023-02-08T05:23:24;-0.97;83.07
71177;DHT22;58877;51.992;4.504;2023-02-08T05:25:50;-0.90;83.27
71177;DHT22;58877;51.992;4.504;2023-02-08T05:28:16;-0.81;83.08
71177;DHT22;58877;51.992;4.504;2023-02-08T05:30:42;-0.80;83.05
71177;DHT22;58877;51.992;4.504;2023-02-08T05:33:08;-0.76;83.02
71177;DHT22;58877;51.992;4.504;2023-02-08T05:35:33;-0.69;82.98
71177;DHT22;58877;51.992;4.504;2023-02-08T05:37:59;-0.69;82.80
71177;DHT22;58877;51.992;4.504;2023-02-08T05:40:25;-0.70;82.66
71177;DHT22;58877;51.992;4.504;2023-02-08T05:42:50;-0.73;82.56
71177;DHT22;58877;51.992;4.504;2023-02-08T05:45:16;-0.73;82.56
71177;DHT22;58877;51.992;4.504;2023-02-08T05:47:42;-0.69;82.46
71177;DHT22;58877;51.992;4.504;2023-02-08T05:50:08;-0.69;82.41
71177;DHT22;58877;51.992;4.504;2023-02-08T05:52:34;-0.62;82.44
71177;DHT22;58877;51.992;4.504;2023-02-08T05:54:59;-0.60;82.42
71177;DHT22;58877;51.992;4.504;2023-02-08T05:57:25;-0.60;82.36
71177;DHT22;58877;51.992;4.504;2023-02-08T05:59:51;-0.59;82.17
71177;DHT22;58877;51.992;4.504;2023-02-08T06:02:16;-0.63;82.08
71177;DHT22;58877;51.992;4.504;2023-02-08T06:04:42;-0.70;82.08
71177;DHT22;58877;51.992;4.504;2023-02-08T06:07:08;-0.72;82.16
71177;DHT22;58877;51.992;4.504;2023-02-08T06:09:33;-0.74;82.19
71177;DHT22;58877;51.992;4.504;2023-02-08T06:11:59;-0.76;82.28
71177;DHT22;58877;51.992;4.504;2023-02-08T06:14:24;-0.80;82.29
71177;DHT22;58877;51.992;4.504;2023-02-08T06:16:50;-0.81;82.31
71177;DHT22;58877;51.992;4.504;2023-02-08T06:19:15;-0.86;82.21
71177;DHT22;58877;51.992;4.504;2023-02-08T06:21:41;-0.79;82.22
71177;DHT22;58877;51.992;4.504;2023-02-08T06:24:07;-0.86;82.13
71177;DHT22;58877;51.992;4.504;2023-02-08T06:26:32;-0.93;82.16
71177;DHT22;58877;51.992;4.504;2023-02-08T06:28:59;-1.00;82.24
71177;DHT22;58877;51.992;4.504;2023-02-08T06:31:25;-1.04;82.29
71177;DHT22;58877;51.992;4.504;2023-02-08T06:33:51;-1.07;82.36
71177;DHT22;58877;51.992;4.504;2023-02-08T06:36:16;-1.04;82.35
71177;DHT22;58877;51.992;4.504;2023-02-08T06:38:42;-1.03;82.16
71177;DHT22;58877;51.992;4.504;2023-02-08T06:41:08;-1.03;82.20
71177;DHT22;58877;51.992;4.504;2023-02-08T06:43:34;-1.05;82.17
71177;DHT22;58877;51.992;4.504;2023-02-08T06:45:59;-1.10;82.21
71177;DHT22;58877;51.992;4.504;2023-02-08T06:48:29;-1.08;82.23
71177;DHT22;58877;51.992;4.504;2023-02-08T06:50:55;-1.14;82.26
71177;DHT22;58877;51.992;4.504;2023-02-08T06:53:21;-1.07;82.21
71177;DHT22;58877;51.992;4.504;2023-02-08T06:55:50;-1.01;82.13
71177;DHT22;58877;51.992;4.504;2023-02-08T06:58:19;-0.96;81.98
71177;DHT22;58877;51.992;4.504;2023-02-08T07:00:45;-0.91;81.95
71177;DHT22;58877;51.992;4.504;2023-02-08T07:03:12;-0.87;81.84
71177;DHT22;58877;51.992;4.504;2023-02-08T07:05:38;-0.90;81.84
71177;DHT22;58877;51.992;4.504;2023-02-08T07:08:06;-0.94;81.86
71177;DHT22;58877;51.992;4.504;2023-02-08T07:10:32;-1.01;82.02
71177;DHT22;58877;51.992;4.504;2023-02-08T07:13:00;-1.01;82.13
71177;DHT22;58877;51.992;4.504;2023-02-08T07:15:26;-1.00;82.03
71177;DHT22;58877;51.992;4.504;2023-02-08T07:17:53;-1.07;82.03
71177;DHT22;58877;51.992;4.504;2023-02-08T07:20:19;-1.10;82.14
71177;DHT22;58877;51.992;4.504;2023-02-08T07:22:45;-1.08;82.31
71177;DHT22;58877;51.992;4.504;2023-02-08T07:25:10;-1.08;82.29
71177;DHT22;58877;51.992;4.504;2023-02-08T07:27:36;-1.01;82.32
71177;DHT22;58877;51.992;4.504;2023-02-08T07:30:03;-1.01;82.18
71177;DHT22;58877;51.992;4.504;2023-02-08T07:32:28;-0.97;82.09
71177;DHT22;58877;51.992;4.504;2023-02-08T07:34:54;-0.96;82.03
71177;DHT22;58877;51.992;4.504;2023-02-08T07:37:20;-0.91;82.05
71177;DHT22;58877;51.992;4.504;2023-02-08T07:39:45;-0.87;82.05
71177;DHT22;58877;51.992;4.504;2023-02-08T07:42:11;-0.86;82.02
71177;DHT22;58877;51.992;4.504;2023-02-08T07:44:37;-0.76;82.10
71177;DHT22;58877;51.992;4.504;2023-02-08T07:47:06;-0.62;81.92
71177;DHT22;58877;51.992;4.504;2023-02-08T07:49:32;-0.59;81.74
71177;DHT22;58877;51.992;4.504;2023-02-08T07:52:00;-0.46;81.69
71177;DHT22;58877;51.992;4.504;2023-02-08T07:54:28;-0.42;81.63
71177;DHT22;58877;51.992;4.504;2023-02-08T07:56:54;-0.42;81.56
71177;DHT22;58877;51.992;4.504;2023-02-08T07:59:20;-0.42;81.46
71177;DHT22;58877;51.992;4.504;2023-02-08T08:01:46;-0.42;81.41
71177;DHT22;58877;51.992;4.504;2023-02-08T08:04:11;-0.46;81.58
71177;DHT22;58877;51.992;4.504;2023-02-08T08:06:37;-0.39;81.55
71177;DHT22;58877;51.992;4.504;2023-02-08T08:09:03;-0.37;81.43
71177;DHT22;58877;51.992;4.504;2023-02-08T08:11:30;-0.36;81.47
71177;DHT22;58877;51.992;4.504;2023-02-08T08:13:56;-0.36;81.50
71177;DHT22;58877;51.992;4.504;2023-02-08T08:16:21;-0.29;81.71
71177;DHT22;58877;51.992;4.504;2023-02-08T08:18:47;-0.19;81.57
71177;DHT22;58877;51.992;4.504;2023-02-08T08:21:13;-0.08;81.59
71177;DHT22;58877;51.992;4.504;2023-02-08T08:23:39;0.06;81.62
71177;DHT22;58877;51.992;4.504;2023-02-08T08:26:13;0.12;81.50
71177;DHT22;58877;51.992;4.504;2023-02-08T08:28:40;0.20;81.46
71177;DHT22;58877;51.992;4.504;2023-02-08T08:31:11;0.22;81.39
71177;DHT22;58877;51.992;4.504;2023-02-08T08:33:37;0.32;81.37
71177;DHT22;58877;51.992;4.504;2023-02-08T08:36:03;0.40;81.40
71177;DHT22;58877;51.992;4.504;2023-02-08T08:38:29;0.46;81.30
71177;DHT22;58877;51.992;4.504;2023-02-08T08:40:58;0.52;81.39
71177;DHT22;58877;51.992;4.504;2023-02-08T08:43:24;0.60;81.26
71177;DHT22;58877;51.992;4.504;2023-02-08T08:45:55;0.72;81.28
71177;DHT22;58877;51.992;4.504;2023-02-08T08:48:21;0.83;81.01
71177;DHT22;58877;51.992;4.504;2023-02-08T08:50:46;0.84;80.61
71177;DHT22;58877;51.992;4.504;2023-02-08T08:53:12;0.95;80.75
71177;DHT22;58877;51.992;4.504;2023-02-08T08:55:37;1.00;80.83
71177;DHT22;58877;51.992;4.504;2023-02-08T08:58:03;1.07;80.60
71177;DHT22;58877;51.992;4.504;2023-02-08T09:00:28;1.13;80.22
71177;DHT22;58877;51.992;4.504;2023-02-08T09:02:54;1.18;80.37
71177;DHT22;58877;51.992;4.504;2023-02-08T09:05:19;1.25;80.22
71177;DHT22;58877;51.992;4.504;2023-02-08T09:07:45;1.38;80.49
71177;DHT22;58877;51.992;4.504;2023-02-08T09:10:10;1.55;80.06
71177;DHT22;58877;51.992;4.504;2023-02-08T09:12:36;1.62;79.94
71177;DHT22;58877;51.992;4.504;2023-02-08T09:15:02;1.75;79.96
71177;DHT22;58877;51.992;4.504;2023-02-08T09:17:28;1.82;79.56
71177;DHT22;58877;51.992;4.504;2023-02-08T09:19:53;1.89;79.55
71177;DHT22;58877;51.992;4.504;2023-02-08T09:22:19;2.02;78.85
71177;DHT22;58877;51.992;4.504;2023-02-08T09:24:45;2.06;78.81
71177;DHT22;58877;51.992;4.504;2023-02-08T09:27:10;2.12;78.46
71177;DHT22;58877;51.992;4.504;2023-02-08T09:29:36;2.17;77.76
71177;DHT22;58877;51.992;4.504;2023-02-08T09:32:05;2.17;77.90
71177;DHT22;58877;51.992;4.504;2023-02-08T09:34:30;2.26;78.34
71177;DHT22;58877;51.992;4.504;2023-02-08T09:36:56;2.36;78.41
71177;DHT22;58877;51.992;4.504;2023-02-08T09:39:23;2.48;78.37
71177;DHT22;58877;51.992;4.504;2023-02-08T09:47:35;2.83;77.81
71177;DHT22;58877;51.992;4.504;2023-02-08T09:53:12;3.08;77.17
71177;DHT22;58877;51.992;4.504;2023-02-08T09:55:55;3.16;76.81
71177;DHT22;58877;51.992;4.504;2023-02-08T09:58:35;3.22;76.69
71177;DHT22;58877;51.992;4.504;2023-02-08T10:01:04;3.33;76.11
71177;DHT22;58877;51.992;4.504;2023-02-08T10:03:43;3.42;76.70
71177;DHT22;58877;51.992;4.504;2023-02-08T10:06:13;3.52;75.80
71177;DHT22;58877;51.992;4.504;2023-02-08T10:08:41;3.58;75.92
71177;DHT22;58877;51.992;4.504;2023-02-08T10:12:00;3.63;75.49
71177;DHT22;58877;51.992;4.504;2023-02-08T10:14:46;3.82;75.72
71177;DHT22;58877;51.992;4.504;2023-02-08T10:23:11;4.13;73.66
71177;DHT22;58877;51.992;4.504;2023-02-08T10:25:55;4.21;73.44
71177;DHT22;58877;51.992;4.504;2023-02-08T10:34:55;4.61;71.63
71177;DHT22;58877;51.992;4.504;2023-02-08T10:37:34;4.73;69.57
71177;DHT22;58877;51.992;4.504;2023-02-08T10:40:14;4.75;69.41
71177;DHT22;58877;51.992;4.504;2023-02-08T10:43:08;4.81;69.34
71177;DHT22;58877;51.992;4.504;2023-02-08T10:48:37;5.00;66.96
71177;DHT22;58877;51.992;4.504;2023-02-08T10:51:11;5.08;65.55
71177;DHT22;58877;51.992;4.504;2023-02-08T10:53:37;5.18;64.02
71177;DHT22;58877;51.992;4.504;2023-02-08T10:56:03;5.19;62.21
71177;DHT22;58877;51.992;4.504;2023-02-08T10:58:29;5.19;61.53
71177;DHT22;58877;51.992;4.504;2023-02-08T11:00:56;5.22;61.21
71177;DHT22;58877;51.992;4.504;2023-02-08T11:03:25;5.29;60.60
71177;DHT22;58877;51.992;4.504;2023-02-08T11:05:52;5.27;59.95
71177;DHT22;58877;51.992;4.504;2023-02-08T11:08:20;5.35;60.21
71177;DHT22;58877;51.992;4.504;2023-02-08T11:13:37;5.47;59.39
71177;DHT22;58877;51.992;4.504;2023-02-08T11:16:08;5.58;59.29
71177;DHT22;58877;51.992;4.504;2023-02-08T11:18:40;5.74;58.02
71177;DHT22;58877;51.992;4.504;2023-02-08T11:21:27;5.87;57.18
71177;DHT22;58877;51.992;4.504;2023-02-08T11:23:55;5.95;57.31
71177;DHT22;58877;51.992;4.504;2023-02-08T11:26:34;6.10;56.91
71177;DHT22;58877;51.992;4.504;2023-02-08T11:29:13;6.29;56.97
71177;DHT22;58877;51.992;4.504;2023-02-08T11:34:37;6.61;55.04
71177;DHT22;58877;51.992;4.504;2023-02-08T11:37:14;6.73;55.45
71177;DHT22;58877;51.992;4.504;2023-02-08T11:39:44;6.75;54.67
71177;DHT22;58877;51.992;4.504;2023-02-08T11:42:24;6.80;54.90
71177;DHT22;58877;51.992;4.504;2023-02-08T11:44:53;6.90;54.67
71177;DHT22;58877;51.992;4.504;2023-02-08T11:47:25;7.03;54.65
71177;DHT22;58877;51.992;4.504;2023-02-08T11:49:55;7.07;54.61
71177;DHT22;58877;51.992;4.504;2023-02-08T11:52:34;7.14;54.30
71177;DHT22;58877;51.992;4.504;2023-02-08T11:57:59;7.31;53.40
71177;DHT22;58877;51.992;4.504;2023-02-08T12:00:31;7.40;51.69
71177;DHT22;58877;51.992;4.504;2023-02-08T12:03:15;7.40;51.41
71177;DHT22;58877;51.992;4.504;2023-02-08T12:11:49;7.23;47.56
71177;DHT22;58877;51.992;4.504;2023-02-08T12:22:23;7.32;46.78
71177;DHT22;58877;51.992;4.504;2023-02-08T12:30:28;7.52;45.45
71177;DHT22;58877;51.992;4.504;2023-02-08T12:41:30;7.71;45.53
71177;DHT22;58877;51.992;4.504;2023-02-08T12:46:47;7.85;44.43
71177;DHT22;58877;51.992;4.504;2023-02-08T12:54:40;7.99;44.01
71177;DHT22;58877;51.992;4.504;2023-02-08T12:57:13;7.98;43.47
71177;DHT22;58877;51.992;4.504;2023-02-08T12:59:46;8.07;43.31
71177;DHT22;58877;51.992;4.504;2023-02-08T13:04:50;8.05;43.10
71177;DHT22;58877;51.992;4.504;2023-02-08T13:07:41;8.09;42.71
71177;DHT22;58877;51.992;4.504;2023-02-08T13:10:28;8.13;42.00
71177;DHT22;58877;51.992;4.504;2023-02-08T13:13:03;8.13;39.50
71177;DHT22;58877;51.992;4.504;2023-02-08T13:15:45;8.17;40.65
71177;DHT22;58877;51.992;4.504;2023-02-08T13:18:33;8.22;40.61
71177;DHT22;58877;51.992;4.504;2023-02-08T13:21:12;8.26;41.34
71177;DHT22;58877;51.992;4.504;2023-02-08T13:23:42;8.30;41.18
71177;DHT22;58877;51.992;4.504;2023-02-08T13:26:20;8.36;40.40
71177;DHT22;58877;51.992;4.504;2023-02-08T13:28:54;8.43;40.83
71177;DHT22;58877;51.992;4.504;2023-02-08T13:31:43;8.49;39.76
71177;DHT22;58877;51.992;4.504;2023-02-08T13:37:00;8.33;40.00
71177;DHT22;58877;51.992;4.504;2023-02-08T13:39:34;8.37;40.48
71177;DHT22;58877;51.992;4.504;2023-02-08T13:42:03;8.36;38.78
71177;DHT22;58877;51.992;4.504;2023-02-08T13:44:37;8.42;39.95
71177;DHT22;58877;51.992;4.504;2023-02-08T13:47:06;8.53;38.38
71177;DHT22;58877;51.992;4.504;2023-02-08T14:08:30;8.45;39.04
71177;DHT22;58877;51.992;4.504;2023-02-08T14:14:11;8.66;37.98
71177;DHT22;58877;51.992;4.504;2023-02-08T14:19:36;8.59;37.52
71177;DHT22;58877;51.992;4.504;2023-02-08T14:24:32;8.53;37.89
71177;DHT22;58877;51.992;4.504;2023-02-08T14:30:06;8.80;37.20
71177;DHT22;58877;51.992;4.504;2023-02-08T14:32:36;8.83;37.28
71177;DHT22;58877;51.992;4.504;2023-02-08T14:37:46;8.81;38.13
71177;DHT22;58877;51.992;4.504;2023-02-08T14:45:46;8.73;40.13
71177;DHT22;58877;51.992;4.504;2023-02-08T14:48:29;8.71;39.93
71177;DHT22;58877;51.992;4.504;2023-02-08T14:59:14;8.74;38.02
71177;DHT22;58877;51.992;4.504;2023-02-08T15:01:55;8.94;37.25
71177;DHT22;58877;51.992;4.504;2023-02-08T15:04:22;9.99;35.83
71177;DHT22;58877;51.992;4.504;2023-02-08T15:09:31;11.86;31.06
71177;DHT22;58877;51.992;4.504;2023-02-08T15:14:30;12.58;29.87
71177;DHT22;58877;51.992;4.504;2023-02-08T15:16:57;12.77;29.64
71177;DHT22;58877;51.992;4.504;2023-02-08T15:19:34;12.98;29.21
71177;DHT22;58877;51.992;4.504;2023-02-08T15:24:59;13.15;28.41
71177;DHT22;58877;51.992;4.504;2023-02-08T15:27:34;13.11;28.21
71177;DHT22;58877;51.992;4.504;2023-02-08T15:30:00;12.94;28.61
71177;DHT22;58877;51.992;4.504;2023-02-08T15:32:27;11.97;29.52
71177;DHT22;58877;51.992;4.504;2023-02-08T15:34:59;10.65;31.53
71177;DHT22;58877;51.992;4.504;2023-02-08T15:37:31;9.90;32.70
71177;DHT22;58877;51.992;4.504;2023-02-08T15:39:59;9.44;33.90
71177;DHT22;58877;51.992;4.504;2023-02-08T15:42:30;9.17;33.41
71177;DHT22;58877;51.992;4.504;2023-02-08T15:45:23;8.96;33.87
71177;DHT22;58877;51.992;4.504;2023-02-08T15:47:56;8.79;34.70
71177;DHT22;58877;51.992;4.504;2023-02-08T15:50:23;8.67;35.16
71177;DHT22;58877;51.992;4.504;2023-02-08T15:53:02;8.56;34.84
71177;DHT22;58877;51.992;4.504;2023-02-08T15:55:42;8.52;34.85
71177;DHT22;58877;51.992;4.504;2023-02-08T16:00:56;8.33;34.86
71177;DHT22;58877;51.992;4.504;2023-02-08T16:03:23;8.23;35.03
71177;DHT22;58877;51.992;4.504;2023-02-08T16:05:56;8.13;38.65
71177;DHT22;58877;51.992;4.504;2023-02-08T16:08:27;8.03;42.59
71177;DHT22;58877;51.992;4.504;2023-02-08T16:11:00;7.92;45.02
71177;DHT22;58877;51.992;4.504;2023-02-08T16:13:34;7.72;46.50
71177;DHT22;58877;51.992;4.504;2023-02-08T16:16:19;7.55;47.56
71177;DHT22;58877;51.992;4.504;2023-02-08T16:18:47;7.47;48.41
71177;DHT22;58877;51.992;4.504;2023-02-08T16:21:40;7.34;49.18
71177;DHT22;58877;51.992;4.504;2023-02-08T16:26:39;7.14;49.81
71177;DHT22;58877;51.992;4.504;2023-02-08T16:29:24;6.96;50.29
71177;DHT22;58877;51.992;4.504;2023-02-08T16:32:23;6.79;50.80
71177;DHT22;58877;51.992;4.504;2023-02-08T16:34:51;6.66;51.33
71177;DHT22;58877;51.992;4.504;2023-02-08T16:37:24;6.56;51.49
71177;DHT22;58877;51.992;4.504;2023-02-08T16:39:59;6.50;51.60
71177;DHT22;58877;51.992;4.504;2023-02-08T16:42:36;6.38;51.95
71177;DHT22;58877;51.992;4.504;2023-02-08T16:51:06;6.17;55.24
71177;DHT22;58877;51.992;4.504;2023-02-08T16:57:03;6.04;55.52
71177;DHT22;58877;51.992;4.504;2023-02-08T16:59:42;5.97;55.19
71177;DHT22;58877;51.992;4.504;2023-02-08T17:06:04;5.64;55.44
71177;DHT22;58877;51.992;4.504;2023-02-08T17:08:30;5.50;55.81
71177;DHT22;58877;51.992;4.504;2023-02-08T17:10:57;5.48;56.16
71177;DHT22;58877;51.992;4.504;2023-02-08T17:13:24;5.43;56.51
71177;DHT22;58877;51.992;4.504;2023-02-08T17:15:53;5.32;56.97
71177;DHT22;58877;51.992;4.504;2023-02-08T17:18:20;5.22;57.31
71177;DHT22;58877;51.992;4.504;2023-02-08T17:20:45;5.12;57.72
71177;DHT22;58877;51.992;4.504;2023-02-08T17:23:12;5.06;57.91
71177;DHT22;58877;51.992;4.504;2023-02-08T17:25:40;4.96;58.25
71177;DHT22;58877;51.992;4.504;2023-02-08T17:28:10;4.88;58.71
71177;DHT22;58877;51.992;4.504;2023-02-08T17:30:40;4.79;58.97
71177;DHT22;58877;51.992;4.504;2023-02-08T17:33:07;4.72;59.21
71177;DHT22;58877;51.992;4.504;2023-02-08T17:35:36;4.64;59.37
71177;DHT22;58877;51.992;4.504;2023-02-08T17:38:03;4.58;59.56
71177;DHT22;58877;51.992;4.504;2023-02-08T17:40:36;4.49;59.84
71177;DHT22;58877;51.992;4.504;2023-02-08T17:43:03;4.42;60.06
71177;DHT22;58877;51.992;4.504;2023-02-08T17:45:43;4.38;60.27
71177;DHT22;58877;51.992;4.504;2023-02-08T17:48:26;4.31;60.44
71177;DHT22;58877;51.992;4.504;2023-02-08T17:51:00;4.24;60.81
71177;DHT22;58877;51.992;4.504;2023-02-08T17:53:25;4.16;61.07
71177;DHT22;58877;51.992;4.504;2023-02-08T17:55:51;4.08;61.17
71177;DHT22;58877;51.992;4.504;2023-02-08T17:58:16;4.06;61.52
71177;DHT22;58877;51.992;4.504;2023-02-08T18:00:43;3.94;61.67
71177;DHT22;58877;51.992;4.504;2023-02-08T18:03:12;3.93;61.78
71177;DHT22;58877;51.992;4.504;2023-02-08T18:05:41;3.93;62.09
71177;DHT22;58877;51.992;4.504;2023-02-08T18:08:07;3.94;62.32
71177;DHT22;58877;51.992;4.504;2023-02-08T18:10:35;3.98;62.42
71177;DHT22;58877;51.992;4.504;2023-02-08T18:13:12;4.00;62.31
71177;DHT22;58877;51.992;4.504;2023-02-08T18:16:17;4.00;62.28
71177;DHT22;58877;51.992;4.504;2023-02-08T18:25:12;4.04;62.03
71177;DHT22;58877;51.992;4.504;2023-02-08T18:27:42;4.07;62.16
71177;DHT22;58877;51.992;4.504;2023-02-08T18:30:11;4.06;61.82
71177;DHT22;58877;51.992;4.504;2023-02-08T18:42:58;4.03;62.44
71177;DHT22;58877;51.992;4.504;2023-02-08T18:45:23;4.04;62.44
71177;DHT22;58877;51.992;4.504;2023-02-08T18:47:49;3.98;62.43
71177;DHT22;58877;51.992;4.504;2023-02-08T18:50:14;3.89;62.18
71177;DHT22;58877;51.992;4.504;2023-02-08T18:52:40;3.80;62.35
71177;DHT22;58877;51.992;4.504;2023-02-08T18:55:06;3.70;62.53
71177;DHT22;58877;51.992;4.504;2023-02-08T18:57:31;3.58;62.78
71177;DHT22;58877;51.992;4.504;2023-02-08T18:59:57;3.59;63.13
71177;DHT22;58877;51.992;4.504;2023-02-08T19:02:23;3.62;63.35
71177;DHT22;58877;51.992;4.504;2023-02-08T19:04:50;3.53;63.49
71177;DHT22;58877;51.992;4.504;2023-02-08T19:07:16;3.53;64.41
71177;DHT22;58877;51.992;4.504;2023-02-08T19:09:41;3.44;64.42
71177;DHT22;58877;51.992;4.504;2023-02-08T19:12:08;3.36;64.65
71177;DHT22;58877;51.992;4.504;2023-02-08T19:14:35;3.42;65.06
71177;DHT22;58877;51.992;4.504;2023-02-08T19:17:01;3.46;64.65
71177;DHT22;58877;51.992;4.504;2023-02-08T19:19:27;3.32;64.54
71177;DHT22;58877;51.992;4.504;2023-02-08T19:21:52;3.26;64.55
71177;DHT22;58877;51.992;4.504;2023-02-08T19:24:18;3.15;64.50
71177;DHT22;58877;51.992;4.504;2023-02-08T19:26:44;3.01;64.84